Time;durP1;ratioP1;P1;durP2;ratioP2;P2;SDS_P1;SDS_P2;PMS_P1;PMS_P2;Temp;Humidity;BMP_temperature;BMP_pressure;BME280_temperature;BME280_humidity;BME280_pressure;Samples;Min_cycle;Max_cycle;Signal;HPM_P1;HPM_P2
2022/12/01 00:00:43;;;;;;;94.80;38.25;;;;;;;;;;5079908;28;20422;-84
2022/12/01 00:03:11;;;;;;;98.05;37.00;;;;;;;;;;5070863;28;20415;-83
2022/12/01 00:05:43;;;;;;;92.72;37.45;;;;;;;;;;5066162;28;20429;-83
2022/12/01 00:08:18;;;;;;;92.35;36.67;;;;;;;;;;5062554;28;20425;-84
2022/12/01 00:10:45;;;;;;;91.22;37.53;;;;;;;;;;5039479;28;20411;-83
2022/12/01 00:13:13;;;;;;;89.32;37.25;;;;;;;;;;5076650;28;20767;-84
2022/12/01 00:15:41;;;;;;;97.10;38.13;;;;;;;;;;5054358;28;20917;-83
2022/12/01 00:18:09;;;;;;;91.63;37.47;;;;;;;;;;5056407;28;20435;-83
2022/12/01 00:20:38;;;;;;;93.57;36.92;;;;;;;;;;5068119;28;20416;-86
2022/12/01 00:23:06;;;;;;;96.57;37.75;;;;;;;;;;5062037;28;20455;-84
2022/12/01 00:25:40;;;;;;;95.15;36.08;;;;;;;;;;5049812;28;20809;-84
2022/12/01 00:28:08;;;;;;;95.93;37.60;;;;;;;;;;5059670;28;20413;-86
2022/12/01 00:30:36;;;;;;;98.70;37.83;;;;;;;;;;5066438;28;20439;-84
2022/12/01 00:33:04;;;;;;;98.32;37.42;;;;;;;;;;5064563;28;20434;-83
2022/12/01 00:35:37;;;;;;;96.33;37.77;;;;;;;;;;5065589;28;20487;-85
2022/12/01 00:38:09;;;;;;;95.77;38.57;;;;;;;;;;5053343;28;20433;-84
2022/12/01 00:40:43;;;;;;;89.63;35.37;;;;;;;;;;5063102;28;20900;-83
2022/12/01 00:43:16;;;;;;;94.22;36.85;;;;;;;;;;5067950;28;20423;-87
2022/12/01 00:45:44;;;;;;;96.22;37.75;;;;;;;;;;5066925;28;21033;-83
2022/12/01 00:48:17;;;;;;;100.05;38.20;;;;;;;;;;5057974;28;20770;-83
2022/12/01 00:50:45;;;;;;;97.65;37.25;;;;;;;;;;5055563;28;20424;-86
2022/12/01 00:53:18;;;;;;;102.53;38.83;;;;;;;;;;5058090;28;20419;-84
2022/12/01 00:55:53;;;;;;;97.40;37.72;;;;;;;;;;5074672;28;20927;-83
2022/12/01 00:58:21;;;;;;;93.82;38.00;;;;;;;;;;5085186;28;20417;-83
2022/12/01 01:00:49;;;;;;;98.75;36.70;;;;;;;;;;5067304;28;20427;-84
2022/12/01 01:03:16;;;;;;;96.72;36.58;;;;;;;;;;5062446;28;20797;-84
2022/12/01 01:05:49;;;;;;;95.68;36.90;;;;;;;;;;5071138;28;20432;-83
2022/12/01 01:08:22;;;;;;;95.43;37.30;;;;;;;;;;5066408;28;20416;-84
2022/12/01 01:10:50;;;;;;;95.68;37.03;;;;;;;;;;5061066;28;20894;-85
2022/12/01 01:13:19;;;;;;;95.80;37.67;;;;;;;;;;5065417;28;20395;-84
2022/12/01 01:15:56;;;;;;;92.85;36.75;;;;;;;;;;5056632;28;20429;-83
2022/12/01 01:18:29;;;;;;;95.38;37.50;;;;;;;;;;5052990;28;20429;-83
2022/12/01 01:20:57;;;;;;;94.85;37.85;;;;;;;;;;5053886;28;20413;-83
2022/12/01 01:23:30;;;;;;;97.00;38.55;;;;;;;;;;5052894;28;20432;-85
2022/12/01 01:26:00;;;;;;;101.68;37.88;;;;;;;;;;5052808;28;20426;-83
2022/12/01 01:28:30;;;;;;;95.90;37.70;;;;;;;;;;5064815;28;20443;-84
2022/12/01 01:31:05;;;;;;;98.90;38.45;;;;;;;;;;5067706;28;20427;-83
2022/12/01 01:33:38;;;;;;;100.63;37.50;;;;;;;;;;5061525;28;20419;-84
2022/12/01 01:36:06;;;;;;;99.05;37.10;;;;;;;;;;5077239;28;20429;-84
2022/12/01 01:38:39;;;;;;;99.07;37.25;;;;;;;;;;5062610;28;20918;-83
2022/12/01 01:41:07;;;;;;;95.95;37.75;;;;;;;;;;5059489;28;20422;-83
2022/12/01 01:43:41;;;;;;;102.70;37.88;;;;;;;;;;5052092;28;20786;-85
2022/12/01 01:46:15;;;;;;;97.93;37.97;;;;;;;;;;5060370;28;20903;-83
2022/12/01 01:48:45;;;;;;;98.03;38.08;;;;;;;;;;5065177;28;20899;-84
2022/12/01 01:51:14;;;;;;;98.75;37.63;;;;;;;;;;5052172;28;20428;-83
2022/12/01 01:53:48;;;;;;;102.70;37.58;;;;;;;;;;5062745;28;20447;-83
2022/12/01 01:56:16;;;;;;;95.68;38.13;;;;;;;;;;5056824;28;20429;-83
2022/12/01 01:58:50;;;;;;;102.90;37.38;;;;;;;;;;5052656;28;20910;-84
2022/12/01 02:01:18;;;;;;;96.80;37.83;;;;;;;;;;5060364;28;20429;-84
2022/12/01 02:03:47;;;;;;;105.47;39.15;;;;;;;;;;5070653;28;20429;-84
2022/12/01 02:06:20;;;;;;;95.30;36.55;;;;;;;;;;5067410;28;20429;-85
2022/12/01 02:08:48;;;;;;;104.68;37.80;;;;;;;;;;5067933;28;20441;-84
2022/12/01 02:11:47;;;;;;;105.75;37.53;;;;;;;;;;5071111;28;20438;-84
2022/12/01 02:14:23;;;;;;;102.95;38.97;;;;;;;;;;5066946;28;20415;-83
2022/12/01 02:16:54;;;;;;;102.63;37.97;;;;;;;;;;5051546;28;20438;-84
2022/12/01 02:19:36;;;;;;;100.55;37.53;;;;;;;;;;5068566;28;20775;-83
2022/12/01 02:22:17;;;;;;;96.65;38.17;;;;;;;;;;5060804;28;20781;-85
2022/12/01 02:24:56;;;;;;;107.95;39.50;;;;;;;;;;5055330;28;20424;-83
2022/12/01 02:27:28;;;;;;;101.93;38.63;;;;;;;;;;5068343;28;20419;-84
2022/12/01 02:30:07;;;;;;;102.47;38.50;;;;;;;;;;5057471;28;20420;-85
2022/12/01 02:32:43;;;;;;;106.90;38.42;;;;;;;;;;5062734;28;20435;-85
2022/12/01 02:35:21;;;;;;;103.63;37.67;;;;;;;;;;5066798;28;20437;-85
2022/12/01 02:37:54;;;;;;;99.65;38.10;;;;;;;;;;5055051;28;20805;-83
2022/12/01 02:40:24;;;;;;;97.00;36.60;;;;;;;;;;5062906;28;20793;-86
2022/12/01 02:43:01;;;;;;;101.85;37.53;;;;;;;;;;5057501;28;20419;-85
2022/12/01 02:45:33;;;;;;;96.40;37.03;;;;;;;;;;5070296;28;20525;-84
2022/12/01 02:48:04;;;;;;;99.05;37.13;;;;;;;;;;5064760;28;20428;-83
2022/12/01 02:50:33;;;;;;;96.33;37.27;;;;;;;;;;5067099;28;20416;-83
2022/12/01 02:53:08;;;;;;;103.10;37.67;;;;;;;;;;5059890;28;20428;-84
2022/12/01 02:55:46;;;;;;;103.40;38.05;;;;;;;;;;5068042;28;20946;-84
2022/12/01 02:58:14;;;;;;;102.93;38.13;;;;;;;;;;5092335;28;20417;-84
2022/12/01 03:01:01;;;;;;;106.00;38.10;;;;;;;;;;5079481;28;20745;-85
2022/12/01 03:03:45;;;;;;;100.43;38.13;;;;;;;;;;5066811;28;20423;-83
2022/12/01 03:06:20;;;;;;;104.25;38.63;;;;;;;;;;5067440;28;20425;-84
2022/12/01 03:08:52;;;;;;;105.30;37.85;;;;;;;;;;5055794;28;20538;-83
2022/12/01 03:11:27;;;;;;;95.53;36.38;;;;;;;;;;5068041;28;20423;-83
2022/12/01 03:14:08;;;;;;;105.28;38.35;;;;;;;;;;5053261;28;20428;-83
2022/12/01 03:16:39;;;;;;;103.05;38.17;;;;;;;;;;5060452;28;20436;-85
2022/12/01 03:19:10;;;;;;;103.67;37.67;;;;;;;;;;5072758;28;20425;-83
2022/12/01 03:21:47;;;;;;;103.80;37.63;;;;;;;;;;5077486;28;20958;-84
2022/12/01 03:24:17;;;;;;;96.55;36.50;;;;;;;;;;5058577;28;20401;-84
2022/12/01 03:26:46;;;;;;;97.43;36.92;;;;;;;;;;5051141;28;20460;-84
2022/12/01 03:29:21;;;;;;;93.70;36.47;;;;;;;;;;5053545;28;20422;-84
2022/12/01 03:31:57;;;;;;;97.95;37.08;;;;;;;;;;5060783;28;20798;-84
2022/12/01 03:34:31;;;;;;;95.82;37.03;;;;;;;;;;5068696;28;20415;-86
2022/12/01 03:37:06;;;;;;;98.18;36.13;;;;;;;;;;5053832;28;20794;-84
2022/12/01 03:39:39;;;;;;;102.22;36.65;;;;;;;;;;5065932;28;20417;-84
2022/12/01 03:42:12;;;;;;;100.18;36.55;;;;;;;;;;5050248;28;20424;-84
2022/12/01 03:44:43;;;;;;;100.32;37.70;;;;;;;;;;5059893;28;20427;-83
2022/12/01 03:47:18;;;;;;;90.32;34.50;;;;;;;;;;5060022;28;20423;-84
2022/12/01 03:49:48;;;;;;;95.55;37.47;;;;;;;;;;5072841;28;20423;-84
2022/12/01 03:52:19;;;;;;;98.80;35.87;;;;;;;;;;5052061;28;20759;-84
2022/12/01 03:54:51;;;;;;;96.45;35.50;;;;;;;;;;5063619;28;20423;-84
2022/12/01 03:57:26;;;;;;;98.55;36.20;;;;;;;;;;5055701;28;20425;-85
2022/12/01 03:59:59;;;;;;;95.13;36.70;;;;;;;;;;5049671;28;20425;-84
2022/12/01 04:02:27;;;;;;;91.88;35.53;;;;;;;;;;5066564;28;20421;-83
2022/12/01 04:05:01;;;;;;;87.50;34.42;;;;;;;;;;5048645;28;20433;-83
2022/12/01 04:07:34;;;;;;;92.10;34.58;;;;;;;;;;5050006;28;20425;-84
2022/12/01 04:10:02;;;;;;;91.70;35.42;;;;;;;;;;5049489;28;20424;-84
2022/12/01 04:12:28;;;;;;;94.15;34.35;;;;;;;;;;5069567;28;20422;-84
2022/12/01 04:14:56;;;;;;;95.00;35.13;;;;;;;;;;5058860;28;20763;-85
2022/12/01 04:17:29;;;;;;;88.40;34.33;;;;;;;;;;5065363;28;20427;-83
2022/12/01 04:19:57;;;;;;;96.50;35.08;;;;;;;;;;5055821;28;20440;-83
2022/12/01 04:22:27;;;;;;;93.60;34.38;;;;;;;;;;5065406;28;20435;-84
2022/12/01 04:24:54;;;;;;;100.20;35.10;;;;;;;;;;5059560;28;20421;-84
2022/12/01 04:27:22;;;;;;;90.20;33.60;;;;;;;;;;5058532;28;20442;-87
2022/12/01 04:29:50;;;;;;;93.63;34.38;;;;;;;;;;5058715;28;20910;-84
2022/12/01 04:32:23;;;;;;;93.88;34.55;;;;;;;;;;5058802;28;20440;-83
2022/12/01 04:34:56;;;;;;;94.63;34.50;;;;;;;;;;5062985;28;20454;-84
2022/12/01 04:37:30;;;;;;;91.65;34.15;;;;;;;;;;5064084;28;20422;-84
2022/12/01 04:40:03;;;;;;;95.15;33.75;;;;;;;;;;5078738;28;20512;-84
2022/12/01 04:42:30;;;;;;;95.32;34.45;;;;;;;;;;5049511;28;20921;-83
2022/12/01 04:44:58;;;;;;;98.00;34.75;;;;;;;;;;5066353;28;20918;-84
2022/12/01 04:47:26;;;;;;;99.43;35.45;;;;;;;;;;5053408;28;20432;-84
2022/12/01 04:49:59;;;;;;;91.22;33.30;;;;;;;;;;5060574;28;20423;-84
2022/12/01 04:52:27;;;;;;;96.22;34.08;;;;;;;;;;5069496;28;20787;-83
2022/12/01 04:54:56;;;;;;;94.70;33.30;;;;;;;;;;5051243;28;20778;-83
2022/12/01 04:57:24;;;;;;;94.28;34.17;;;;;;;;;;5052753;28;20435;-84
2022/12/01 04:59:52;;;;;;;97.60;33.90;;;;;;;;;;5064912;28;20400;-83
2022/12/01 05:02:24;;;;;;;97.63;34.92;;;;;;;;;;5067558;28;20423;-85
2022/12/01 05:04:52;;;;;;;100.45;35.33;;;;;;;;;;5062755;28;20937;-83
2022/12/01 05:07:25;;;;;;;96.30;33.83;;;;;;;;;;5068963;28;20780;-85
2022/12/01 05:09:53;;;;;;;109.05;35.63;;;;;;;;;;5051425;28;20877;-84
2022/12/01 05:12:23;;;;;;;96.05;34.38;;;;;;;;;;5068340;28;20749;-83
2022/12/01 05:14:55;;;;;;;99.60;36.40;;;;;;;;;;5062693;28;20519;-83
2022/12/01 05:17:23;;;;;;;102.20;34.97;;;;;;;;;;5054948;28;20425;-84
2022/12/01 05:22:41;;;;;;;115.70;35.95;;;;;;;;;;5057661;28;20402;-85
2022/12/01 05:25:09;;;;;;;106.88;36.15;;;;;;;;;;5055269;28;20414;-84
2022/12/01 05:27:39;;;;;;;100.87;35.70;;;;;;;;;;5071972;28;20778;-85
2022/12/01 05:30:08;;;;;;;110.75;36.47;;;;;;;;;;5071131;28;20415;-84
2022/12/01 05:32:41;;;;;;;106.63;35.50;;;;;;;;;;5063225;28;20450;-83
2022/12/01 05:35:09;;;;;;;118.03;37.80;;;;;;;;;;5071963;28;20412;-83
2022/12/01 05:37:37;;;;;;;125.35;38.22;;;;;;;;;;5061758;28;20449;-83
2022/12/01 05:40:05;;;;;;;112.93;37.00;;;;;;;;;;5055352;28;20429;-85
2022/12/01 05:42:40;;;;;;;106.50;36.30;;;;;;;;;;5054934;28;20433;-83
2022/12/01 05:45:08;;;;;;;123.60;37.80;;;;;;;;;;5064152;28;20423;-83
2022/12/01 05:47:35;;;;;;;125.88;37.53;;;;;;;;;;5069017;28;20432;-84
2022/12/01 05:50:03;;;;;;;122.85;38.63;;;;;;;;;;5067674;28;20428;-84
2022/12/01 05:52:32;;;;;;;134.00;39.15;;;;;;;;;;5071674;28;20426;-83
2022/12/01 05:55:00;;;;;;;121.90;37.53;;;;;;;;;;5065241;28;20926;-83
2022/12/01 05:57:28;;;;;;;124.65;38.05;;;;;;;;;;5056808;28;20421;-84
2022/12/01 05:59:57;;;;;;;124.68;38.22;;;;;;;;;;5052204;28;20428;-84
2022/12/01 06:02:26;;;;;;;115.72;37.88;;;;;;;;;;5064651;28;20432;-84
2022/12/01 06:04:54;;;;;;;129.18;38.22;;;;;;;;;;5066938;28;20790;-85
2022/12/01 06:07:24;;;;;;;123.20;38.28;;;;;;;;;;5070790;28;20423;-83
2022/12/01 06:09:52;;;;;;;120.60;37.28;;;;;;;;;;5078002;28;20434;-83
2022/12/01 06:12:25;;;;;;;118.25;36.85;;;;;;;;;;5064993;28;20416;-84
2022/12/01 06:14:59;;;;;;;120.13;37.33;;;;;;;;;;5061811;28;20464;-86
2022/12/01 06:17:26;;;;;;;121.65;37.03;;;;;;;;;;5065749;28;20778;-85
2022/12/01 06:19:54;;;;;;;126.95;37.47;;;;;;;;;;5067684;28;20916;-85
2022/12/01 06:22:27;;;;;;;127.60;38.80;;;;;;;;;;5057280;28;20421;-84
2022/12/01 06:25:00;;;;;;;128.55;37.70;;;;;;;;;;5082901;28;20909;-83
2022/12/01 06:27:27;;;;;;;121.35;37.55;;;;;;;;;;5075098;28;20498;-83
2022/12/01 06:29:55;;;;;;;122.18;37.85;;;;;;;;;;5073642;28;20908;-84
2022/12/01 06:32:24;;;;;;;119.40;36.37;;;;;;;;;;5064577;28;21142;-84
2022/12/01 06:34:57;;;;;;;127.47;37.85;;;;;;;;;;5068785;28;20428;-84
2022/12/01 06:37:26;;;;;;;135.20;39.35;;;;;;;;;;5057015;28;20436;-85
2022/12/01 06:39:59;;;;;;;129.35;37.70;;;;;;;;;;5054379;28;20433;-84
2022/12/01 06:42:29;;;;;;;123.82;37.22;;;;;;;;;;5074374;28;20792;-84
2022/12/01 06:45:01;;;;;;;120.75;37.38;;;;;;;;;;5065475;28;20427;-83
2022/12/01 06:47:35;;;;;;;111.65;35.58;;;;;;;;;;5064238;28;20425;-84
2022/12/01 06:50:04;;;;;;;105.60;34.35;;;;;;;;;;5062054;28;20932;-84
2022/12/01 06:52:37;;;;;;;102.20;32.70;;;;;;;;;;5066841;28;20425;-84
2022/12/01 06:55:05;;;;;;;97.20;33.47;;;;;;;;;;5067890;28;21135;-86
2022/12/01 06:57:33;;;;;;;91.70;31.38;;;;;;;;;;5065067;28;20462;-84
2022/12/01 07:00:02;;;;;;;101.65;32.63;;;;;;;;;;5067240;28;20428;-85
2022/12/01 07:02:37;;;;;;;91.87;30.97;;;;;;;;;;5055186;28;20428;-83
2022/12/01 07:05:10;;;;;;;94.35;29.75;;;;;;;;;;5054105;28;20440;-83
2022/12/01 07:07:38;;;;;;;99.90;32.08;;;;;;;;;;5063121;28;20429;-84
2022/12/01 07:10:07;;;;;;;96.28;31.88;;;;;;;;;;5055486;28;20429;-84
2022/12/01 07:12:40;;;;;;;92.65;30.63;;;;;;;;;;5059431;28;20794;-85
2022/12/01 07:15:08;;;;;;;92.83;30.57;;;;;;;;;;5062944;28;20430;-84
2022/12/01 07:17:42;;;;;;;93.75;29.90;;;;;;;;;;5067937;28;20434;-82
2022/12/01 07:20:10;;;;;;;98.68;32.80;;;;;;;;;;5058773;28;20921;-84
2022/12/01 07:22:38;;;;;;;89.90;30.45;;;;;;;;;;5059928;28;20429;-84
2022/12/01 07:25:11;;;;;;;96.28;32.03;;;;;;;;;;5056035;28;20427;-83
2022/12/01 07:27:39;;;;;;;89.55;30.13;;;;;;;;;;5062684;28;20431;-83
2022/12/01 07:30:07;;;;;;;91.43;30.42;;;;;;;;;;5061044;28;20433;-86
2022/12/01 07:32:35;;;;;;;94.03;31.30;;;;;;;;;;5057056;28;20419;-84
2022/12/01 07:35:10;;;;;;;88.97;29.92;;;;;;;;;;5058685;28;20436;-86
2022/12/01 07:37:43;;;;;;;88.63;29.98;;;;;;;;;;5061680;28;21203;-83
2022/12/01 07:40:11;;;;;;;89.95;30.48;;;;;;;;;;5065933;28;20427;-83
2022/12/01 07:42:44;;;;;;;93.10;29.90;;;;;;;;;;5058017;28;20436;-83
2022/12/01 07:45:12;;;;;;;94.65;31.23;;;;;;;;;;5054443;28;20432;-87
2022/12/01 07:47:39;;;;;;;94.20;30.58;;;;;;;;;;5048134;28;20431;-86
2022/12/01 07:50:08;;;;;;;89.10;29.88;;;;;;;;;;5049281;28;20431;-87
2022/12/01 07:52:37;;;;;;;87.33;29.93;;;;;;;;;;5049047;28;20438;-86
2022/12/01 07:55:10;;;;;;;91.18;30.77;;;;;;;;;;5054915;28;21229;-83
2022/12/01 07:57:37;;;;;;;92.35;29.52;;;;;;;;;;5049799;28;20432;-83
2022/12/01 08:00:06;;;;;;;90.90;29.90;;;;;;;;;;5048576;28;20439;-88
2022/12/01 08:02:39;;;;;;;92.95;28.50;;;;;;;;;;5048559;28;20428;-89
2022/12/01 08:05:12;;;;;;;88.57;29.33;;;;;;;;;;5054389;28;20420;-85
2022/12/01 08:07:46;;;;;;;87.55;28.20;;;;;;;;;;5051883;28;21152;-88
2022/12/01 08:10:14;;;;;;;90.25;28.20;;;;;;;;;;5053703;28;20438;-84
2022/12/01 08:12:41;;;;;;;79.88;26.33;;;;;;;;;;5056014;28;20427;-88
2022/12/01 08:15:14;;;;;;;81.05;27.00;;;;;;;;;;5058410;28;20439;-85
2022/12/01 08:17:42;;;;;;;80.78;26.38;;;;;;;;;;5063307;28;20443;-88
2022/12/01 08:20:11;;;;;;;82.00;26.15;;;;;;;;;;5048093;28;20446;-84
2022/12/01 08:22:43;;;;;;;78.70;25.58;;;;;;;;;;5047960;28;20419;-86
2022/12/01 08:25:12;;;;;;;74.30;24.85;;;;;;;;;;5051375;28;20439;-84
2022/12/01 08:27:40;;;;;;;68.28;23.13;;;;;;;;;;5049965;28;20431;-85
2022/12/01 08:30:09;;;;;;;68.97;24.30;;;;;;;;;;5059128;28;20427;-83
2022/12/01 08:32:36;;;;;;;75.65;26.13;;;;;;;;;;5049774;28;20419;-84
2022/12/01 08:35:05;;;;;;;85.05;27.20;;;;;;;;;;5053171;28;20431;-83
2022/12/01 08:37:37;;;;;;;79.72;25.48;;;;;;;;;;5044224;28;20838;-86
2022/12/01 08:40:06;;;;;;;72.53;23.88;;;;;;;;;;5046471;28;20939;-84
2022/12/01 08:42:40;;;;;;;66.03;22.17;;;;;;;;;;5047891;28;20430;-84
2022/12/01 08:45:09;;;;;;;57.35;21.48;;;;;;;;;;5046771;28;21248;-86
2022/12/01 08:47:42;;;;;;;61.15;20.33;;;;;;;;;;5050979;28;20474;-86
2022/12/01 08:50:15;;;;;;;77.03;22.88;;;;;;;;;;5040346;28;22379;-87
2022/12/01 08:52:42;;;;;;;70.03;21.58;;;;;;;;;;5044196;28;20434;-82
2022/12/01 08:55:10;;;;;;;71.70;21.58;;;;;;;;;;5043357;28;20419;-85
2022/12/01 08:57:38;;;;;;;71.25;22.63;;;;;;;;;;5056880;28;20432;-87
2022/12/01 09:00:09;;;;;;;72.88;23.30;;;;;;;;;;5046947;28;20808;-85
2022/12/01 09:02:36;;;;;;;83.57;23.75;;;;;;;;;;5068990;28;20423;-85
2022/12/01 09:05:05;;;;;;;78.72;23.17;;;;;;;;;;5053317;28;21007;-85
2022/12/01 09:07:33;;;;;;;77.60;23.38;;;;;;;;;;5052671;28;20442;-83
2022/12/01 09:10:06;;;;;;;84.25;23.02;;;;;;;;;;5053504;28;20423;-83
2022/12/01 09:12:34;;;;;;;92.65;24.35;;;;;;;;;;5054959;28;22595;-86
2022/12/01 09:15:09;;;;;;;78.23;22.97;;;;;;;;;;5049027;28;20439;-85
2022/12/01 09:17:42;;;;;;;88.72;23.92;;;;;;;;;;5049114;28;20429;-83
2022/12/01 09:20:10;;;;;;;85.22;23.48;;;;;;;;;;5048880;28;21087;-84
2022/12/01 09:22:38;;;;;;;85.57;24.02;;;;;;;;;;5052925;28;20435;-84
2022/12/01 09:25:13;;;;;;;86.72;23.73;;;;;;;;;;5057491;28;20427;-83
2022/12/01 09:27:41;;;;;;;77.95;23.35;;;;;;;;;;5051159;28;20440;-87
2022/12/01 09:30:11;;;;;;;85.45;23.25;;;;;;;;;;5049262;28;20458;-85
2022/12/01 09:32:43;;;;;;;82.40;22.75;;;;;;;;;;5053490;28;20435;-86
2022/12/01 09:35:11;;;;;;;81.32;22.90;;;;;;;;;;5053805;28;20431;-85
2022/12/01 09:37:39;;;;;;;82.38;23.38;;;;;;;;;;5065198;28;20457;-86
2022/12/01 09:40:14;;;;;;;88.22;23.67;;;;;;;;;;5052684;28;20435;-84
2022/12/01 09:42:43;;;;;;;86.40;24.10;;;;;;;;;;5049511;28;20440;-85
2022/12/01 09:45:20;;;;;;;91.50;23.13;;;;;;;;;;5052564;28;20430;-82
2022/12/01 09:47:53;;;;;;;86.70;23.70;;;;;;;;;;5051699;28;20431;-81
2022/12/01 09:50:28;;;;;;;86.37;23.77;;;;;;;;;;5045668;28;20435;-85
2022/12/01 09:52:57;;;;;;;90.80;22.90;;;;;;;;;;5050827;28;20426;-81
2022/12/01 09:55:31;;;;;;;81.03;23.38;;;;;;;;;;5048984;28;20450;-85
2022/12/01 09:58:00;;;;;;;87.65;24.38;;;;;;;;;;5047570;28;20423;-83
2022/12/01 10:00:31;;;;;;;88.90;24.33;;;;;;;;;;5061202;28;20528;-82
2022/12/01 10:03:11;;;;;;;82.30;22.65;;;;;;;;;;5047719;28;21937;-87
2022/12/01 10:05:46;;;;;;;80.40;21.60;;;;;;;;;;5054351;28;20419;-83
2022/12/01 10:08:15;;;;;;;73.38;21.63;;;;;;;;;;5058988;28;20459;-86
2022/12/01 10:10:44;;;;;;;80.57;21.90;;;;;;;;;;5052644;28;20416;-87
2022/12/01 10:13:19;;;;;;;75.60;21.35;;;;;;;;;;5053674;28;21122;-85
2022/12/01 10:15:51;;;;;;;84.28;22.02;;;;;;;;;;5050680;28;20435;-84
2022/12/01 10:18:31;;;;;;;83.35;21.92;;;;;;;;;;5048746;28;20425;-86
2022/12/01 10:21:09;;;;;;;79.90;22.08;;;;;;;;;;5050436;28;21116;-85
2022/12/01 10:24:00;;;;;;;96.10;24.58;;;;;;;;;;5052326;28;20432;-83
2022/12/01 10:26:31;;;;;;;92.30;23.33;;;;;;;;;;5051690;28;20435;-84
2022/12/01 10:29:07;;;;;;;81.60;21.70;;;;;;;;;;5051307;28;20446;-86
2022/12/01 10:31:47;;;;;;;80.75;21.73;;;;;;;;;;5052806;28;20427;-84
2022/12/01 10:34:16;;;;;;;79.97;21.38;;;;;;;;;;5054263;28;20424;-86
2022/12/01 10:36:44;;;;;;;79.47;21.42;;;;;;;;;;5050352;28;20435;-83
2022/12/01 10:39:15;;;;;;;81.13;21.17;;;;;;;;;;5048068;28;20432;-86
2022/12/01 10:41:49;;;;;;;79.78;19.13;;;;;;;;;;5048510;28;20432;-88
2022/12/01 10:44:17;;;;;;;78.10;20.58;;;;;;;;;;5047768;28;20435;-86
2022/12/01 10:46:49;;;;;;;73.60;19.60;;;;;;;;;;5052999;28;20447;-87
2022/12/01 10:49:17;;;;;;;77.70;19.90;;;;;;;;;;5048427;28;21933;-83
2022/12/01 10:51:50;;;;;;;69.57;18.50;;;;;;;;;;5051306;28;20429;-84
2022/12/01 10:54:18;;;;;;;84.40;20.65;;;;;;;;;;5057590;28;20420;-83
2022/12/01 10:56:56;;;;;;;77.75;20.20;;;;;;;;;;5060290;28;21244;-85
2022/12/01 10:59:31;;;;;;;76.18;20.15;;;;;;;;;;5047712;28;21120;-88
2022/12/01 11:02:13;;;;;;;87.10;20.25;;;;;;;;;;5046066;28;20423;-83
2022/12/01 11:04:44;;;;;;;74.70;19.98;;;;;;;;;;5057920;28;20432;-83
2022/12/01 11:07:21;;;;;;;82.57;19.25;;;;;;;;;;5053105;28;20424;-83
2022/12/01 11:09:57;;;;;;;80.75;20.45;;;;;;;;;;5052976;28;20423;-84
2022/12/01 11:12:25;;;;;;;77.95;19.63;;;;;;;;;;5049224;28;20431;-86
2022/12/01 11:14:55;;;;;;;76.82;19.63;;;;;;;;;;5047205;28;20438;-88
2022/12/01 11:17:31;;;;;;;81.32;19.98;;;;;;;;;;5048937;28;21829;-84
2022/12/01 11:20:24;;;;;;;84.78;20.77;;;;;;;;;;5068718;28;20431;-87
2022/12/01 11:23:23;;;;;;;80.87;19.07;;;;;;;;;;5052618;28;20419;-86
2022/12/01 11:25:59;;;;;;;75.80;19.15;;;;;;;;;;5054385;28;20423;-85
2022/12/01 11:28:27;;;;;;;80.83;19.20;;;;;;;;;;5047822;28;20888;-84
2022/12/01 11:31:01;;;;;;;83.45;20.02;;;;;;;;;;5053687;28;20442;-84
2022/12/01 11:33:44;;;;;;;74.85;19.05;;;;;;;;;;5050171;28;20423;-86
2022/12/01 11:36:25;;;;;;;80.55;19.42;;;;;;;;;;5049786;28;20892;-83
2022/12/01 11:38:59;;;;;;;79.45;18.42;;;;;;;;;;5049259;28;20458;-86
2022/12/01 11:41:35;;;;;;;76.10;19.80;;;;;;;;;;5051858;28;20419;-82
2022/12/01 11:44:04;;;;;;;75.07;19.73;;;;;;;;;;5052278;28;21457;-82
2022/12/01 11:46:34;;;;;;;69.95;19.25;;;;;;;;;;5049824;28;20428;-84
2022/12/01 11:49:14;;;;;;;66.18;17.40;;;;;;;;;;5049097;28;20427;-86
2022/12/01 11:51:42;;;;;;;66.97;18.40;;;;;;;;;;5052364;28;20423;-85
2022/12/01 11:54:14;;;;;;;63.50;17.47;;;;;;;;;;5050674;28;20418;-82
2022/12/01 11:56:43;;;;;;;70.28;18.05;;;;;;;;;;5053630;28;20436;-85
2022/12/01 11:59:17;;;;;;;70.78;18.83;;;;;;;;;;5049020;28;20431;-85
2022/12/01 12:01:53;;;;;;;66.57;17.55;;;;;;;;;;5049175;28;20458;-86
2022/12/01 12:04:43;;;;;;;68.57;17.90;;;;;;;;;;5051957;28;20437;-85
2022/12/01 12:07:22;;;;;;;66.47;17.27;;;;;;;;;;5037570;28;20422;-86
2022/12/01 12:10:13;;;;;;;66.18;17.63;;;;;;;;;;5052965;28;21261;-83
2022/12/01 12:12:55;;;;;;;63.08;16.88;;;;;;;;;;5066287;28;20438;-82
2022/12/01 12:15:28;;;;;;;67.05;17.08;;;;;;;;;;5049309;28;20427;-85
2022/12/01 12:18:16;;;;;;;65.22;17.73;;;;;;;;;;5048031;28;20431;-85
2022/12/01 12:20:48;;;;;;;66.60;17.63;;;;;;;;;;5048532;28;20440;-82
2022/12/01 12:23:42;;;;;;;66.93;17.65;;;;;;;;;;5044775;28;20958;-86
2022/12/01 12:26:15;;;;;;;60.72;16.88;;;;;;;;;;5017442;28;20430;-84
2022/12/01 12:28:54;;;;;;;57.80;15.98;;;;;;;;;;5056121;28;20427;-85
2022/12/01 12:31:31;;;;;;;62.08;17.35;;;;;;;;;;5051459;28;20442;-84
2022/12/01 12:34:13;;;;;;;59.13;17.05;;;;;;;;;;5058806;28;21104;-83
2022/12/01 12:36:51;;;;;;;68.50;17.50;;;;;;;;;;5058827;28;20490;-83
2022/12/01 12:39:40;;;;;;;66.18;17.52;;;;;;;;;;5054796;28;20424;-85
2022/12/01 12:42:15;;;;;;;58.70;17.02;;;;;;;;;;5065427;28;22259;-81
2022/12/01 12:44:49;;;;;;;62.85;17.10;;;;;;;;;;5053002;28;20435;-82
2022/12/01 12:47:34;;;;;;;60.00;16.80;;;;;;;;;;5055293;28;20442;-85
2022/12/01 12:50:17;;;;;;;65.90;16.80;;;;;;;;;;5054522;28;20427;-82
2022/12/01 12:52:46;;;;;;;64.70;18.13;;;;;;;;;;5060551;28;20988;-81
2022/12/01 12:55:15;;;;;;;54.97;15.70;;;;;;;;;;5051124;28;20412;-82
2022/12/01 12:57:46;;;;;;;60.35;17.83;;;;;;;;;;5054676;28;20438;-85
2022/12/01 13:00:21;;;;;;;62.78;17.92;;;;;;;;;;5051996;28;20509;-83
2022/12/01 13:02:56;;;;;;;65.47;16.50;;;;;;;;;;5068318;28;20438;-86
2022/12/01 13:05:31;;;;;;;57.65;17.13;;;;;;;;;;5053101;28;20435;-87
2022/12/01 13:08:01;;;;;;;51.25;15.25;;;;;;;;;;5052572;28;20447;-86
2022/12/01 13:10:39;;;;;;;57.33;16.17;;;;;;;;;;5046915;28;20447;-85
2022/12/01 13:13:29;;;;;;;59.33;16.13;;;;;;;;;;5046688;28;20432;-86
2022/12/01 13:16:03;;;;;;;58.03;15.77;;;;;;;;;;5050717;28;20423;-81
2022/12/01 13:18:39;;;;;;;57.38;16.15;;;;;;;;;;5051619;28;20454;-82
2022/12/01 13:21:07;;;;;;;53.60;15.95;;;;;;;;;;5053224;28;20424;-84
2022/12/01 13:23:40;;;;;;;57.28;16.33;;;;;;;;;;5054021;28;20431;-84
2022/12/01 13:26:09;;;;;;;53.50;15.83;;;;;;;;;;5050705;28;20434;-82
2022/12/01 13:28:44;;;;;;;57.13;15.68;;;;;;;;;;5055477;28;20424;-81
2022/12/01 13:31:13;;;;;;;54.95;15.48;;;;;;;;;;5053684;28;20424;-84
2022/12/01 13:33:54;;;;;;;65.60;17.55;;;;;;;;;;5049144;28;20447;-81
2022/12/01 13:36:22;;;;;;;66.35;16.55;;;;;;;;;;5043794;28;20438;-84
2022/12/01 13:38:58;;;;;;;68.17;17.87;;;;;;;;;;5048289;28;20462;-84
2022/12/01 13:41:32;;;;;;;61.80;17.67;;;;;;;;;;5049606;28;21141;-84
2022/12/01 13:44:04;;;;;;;71.63;18.25;;;;;;;;;;5051067;28;20427;-87
2022/12/01 13:46:33;;;;;;;70.82;18.02;;;;;;;;;;5053566;28;21070;-81
2022/12/01 13:49:20;;;;;;;66.10;17.27;;;;;;;;;;5049383;28;20439;-85
2022/12/01 13:52:08;;;;;;;67.30;18.30;;;;;;;;;;5054489;28;22127;-84
2022/12/01 13:54:37;;;;;;;65.68;18.05;;;;;;;;;;5048436;28;20435;-86
2022/12/01 13:57:06;;;;;;;66.93;17.20;;;;;;;;;;5049385;28;20478;-88
2022/12/01 13:59:58;;;;;;;64.90;17.40;;;;;;;;;;5045805;28;20408;-82
2022/12/01 14:02:30;;;;;;;72.33;17.77;;;;;;;;;;5042950;28;20427;-84
2022/12/01 14:05:21;;;;;;;64.15;16.70;;;;;;;;;;5042215;28;20442;-82
2022/12/01 14:07:54;;;;;;;77.18;17.85;;;;;;;;;;5058646;28;20428;-81
2022/12/01 14:10:29;;;;;;;72.82;18.60;;;;;;;;;;5052325;28;20431;-82
2022/12/01 14:13:04;;;;;;;78.65;17.10;;;;;;;;;;5051515;28;20438;-82
2022/12/01 14:15:41;;;;;;;71.57;17.58;;;;;;;;;;5047307;28;21109;-81
2022/12/01 14:18:23;;;;;;;82.03;18.42;;;;;;;;;;5047849;28;20431;-81
2022/12/01 14:20:56;;;;;;;80.67;18.67;;;;;;;;;;5045529;28;20429;-81
2022/12/01 14:23:32;;;;;;;78.20;20.03;;;;;;;;;;5051794;28;20420;-83
2022/12/01 14:26:15;;;;;;;79.97;19.95;;;;;;;;;;5051708;28;20447;-84
2022/12/01 14:29:15;;;;;;;80.50;19.92;;;;;;;;;;5048607;28;20420;-84
2022/12/01 14:32:07;;;;;;;86.68;20.73;;;;;;;;;;5011171;28;20435;-83
2022/12/01 14:34:37;;;;;;;90.22;20.58;;;;;;;;;;5048161;28;20437;-82
2022/12/01 14:37:11;;;;;;;76.20;19.53;;;;;;;;;;5045505;28;20432;-82
2022/12/01 14:39:41;;;;;;;80.45;20.20;;;;;;;;;;5040258;28;20424;-82
2022/12/01 14:44:02;;;;;;;78.78;20.75;;;;;;;;;;5044687;28;21232;-83
2022/12/01 14:45:26;;;;;;;82.43;21.87;;;;;;;;;;5049233;28;20435;-81
2022/12/01 14:48:00;;;;;;;89.68;20.48;;;;;;;;;;5042346;28;20443;-82